sensor_id;sensor_type;location;lat;lon;timestamp;P1;durP1;ratioP1;P2;durP2;ratioP2
43678;SDS011;29279;50.858;4.392;2022-08-02T00:01:41;9.73;;;2.47;;
43678;SDS011;29279;50.858;4.392;2022-08-02T00:04:08;12.52;;;2.80;;
43678;SDS011;29279;50.858;4.392;2022-08-02T00:06:34;5.75;;;2.63;;
43678;SDS011;29279;50.858;4.392;2022-08-02T00:09:00;6.93;;;2.47;;
43678;SDS011;29279;50.858;4.392;2022-08-02T00:11:27;10.43;;;2.63;;
43678;SDS011;29279;50.858;4.392;2022-08-02T00:13:53;7.30;;;1.90;;
43678;SDS011;29279;50.858;4.392;2022-08-02T00:16:19;12.07;;;2.42;;
43678;SDS011;29279;50.858;4.392;2022-08-02T00:18:44;9.95;;;2.30;;
43678;SDS011;29279;50.858;4.392;2022-08-02T00:21:10;10.18;;;2.60;;
43678;SDS011;29279;50.858;4.392;2022-08-02T00:23:36;10.82;;;2.45;;
43678;SDS011;29279;50.858;4.392;2022-08-02T00:26:01;12.20;;;3.03;;
43678;SDS011;29279;50.858;4.392;2022-08-02T00:28:28;7.25;;;2.08;;
43678;SDS011;29279;50.858;4.392;2022-08-02T00:30:57;6.68;;;2.15;;
43678;SDS011;29279;50.858;4.392;2022-08-02T00:33:24;6.10;;;2.17;;
43678;SDS011;29279;50.858;4.392;2022-08-02T00:35:50;10.52;;;2.45;;
43678;SDS011;29279;50.858;4.392;2022-08-02T00:38:16;5.70;;;2.00;;
43678;SDS011;29279;50.858;4.392;2022-08-02T00:40:48;7.38;;;2.42;;
43678;SDS011;29279;50.858;4.392;2022-08-02T00:43:16;10.57;;;2.80;;
43678;SDS011;29279;50.858;4.392;2022-08-02T00:45:42;6.80;;;2.10;;
43678;SDS011;29279;50.858;4.392;2022-08-02T00:48:09;8.55;;;2.30;;
43678;SDS011;29279;50.858;4.392;2022-08-02T00:50:36;4.80;;;2.22;;
43678;SDS011;29279;50.858;4.392;2022-08-02T00:53:03;12.40;;;2.25;;
43678;SDS011;29279;50.858;4.392;2022-08-02T00:55:30;6.35;;;2.95;;
43678;SDS011;29279;50.858;4.392;2022-08-02T00:57:56;8.27;;;2.50;;
43678;SDS011;29279;50.858;4.392;2022-08-02T01:00:22;6.00;;;2.40;;
43678;SDS011;29279;50.858;4.392;2022-08-02T01:02:48;3.08;;;2.05;;
43678;SDS011;29279;50.858;4.392;2022-08-02T01:05:14;7.43;;;2.70;;
43678;SDS011;29279;50.858;4.392;2022-08-02T01:07:40;6.90;;;2.75;;
43678;SDS011;29279;50.858;4.392;2022-08-02T01:10:06;9.93;;;3.08;;
43678;SDS011;29279;50.858;4.392;2022-08-02T01:12:32;5.82;;;2.50;;
43678;SDS011;29279;50.858;4.392;2022-08-02T01:14:59;10.68;;;2.90;;
43678;SDS011;29279;50.858;4.392;2022-08-02T01:28:37;7.75;;;3.10;;
43678;SDS011;29279;50.858;4.392;2022-08-02T01:31:31;9.70;;;2.67;;
43678;SDS011;29279;50.858;4.392;2022-08-02T01:34:10;9.38;;;2.75;;
43678;SDS011;29279;50.858;4.392;2022-08-02T01:36:44;6.70;;;3.10;;
43678;SDS011;29279;50.858;4.392;2022-08-02T01:39:14;8.38;;;2.80;;
43678;SDS011;29279;50.858;4.392;2022-08-02T01:41:45;6.28;;;2.97;;
43678;SDS011;29279;50.858;4.392;2022-08-02T01:44:12;9.27;;;2.65;;
43678;SDS011;29279;50.858;4.392;2022-08-02T01:46:40;9.57;;;3.05;;
43678;SDS011;29279;50.858;4.392;2022-08-02T01:49:09;6.55;;;3.00;;
43678;SDS011;29279;50.858;4.392;2022-08-02T01:51:39;9.55;;;2.92;;
43678;SDS011;29279;50.858;4.392;2022-08-02T01:54:25;5.45;;;2.83;;
43678;SDS011;29279;50.858;4.392;2022-08-02T01:56:55;6.88;;;3.10;;
43678;SDS011;29279;50.858;4.392;2022-08-02T01:59:22;9.68;;;3.30;;
43678;SDS011;29279;50.858;4.392;2022-08-02T02:01:50;7.63;;;2.80;;
43678;SDS011;29279;50.858;4.392;2022-08-02T02:04:19;9.70;;;3.28;;
43678;SDS011;29279;50.858;4.392;2022-08-02T02:06:46;6.88;;;2.70;;
43678;SDS011;29279;50.858;4.392;2022-08-02T02:09:13;6.35;;;2.97;;
43678;SDS011;29279;50.858;4.392;2022-08-02T02:11:43;7.03;;;2.97;;
43678;SDS011;29279;50.858;4.392;2022-08-02T02:14:10;13.80;;;2.90;;
43678;SDS011;29279;50.858;4.392;2022-08-02T02:16:38;7.28;;;2.38;;
43678;SDS011;29279;50.858;4.392;2022-08-02T02:19:08;7.78;;;2.47;;
43678;SDS011;29279;50.858;4.392;2022-08-02T02:21:36;5.10;;;2.75;;
43678;SDS011;29279;50.858;4.392;2022-08-02T02:24:02;7.60;;;3.10;;
43678;SDS011;29279;50.858;4.392;2022-08-02T02:26:28;5.55;;;2.55;;
43678;SDS011;29279;50.858;4.392;2022-08-02T02:28:56;6.13;;;2.72;;
43678;SDS011;29279;50.858;4.392;2022-08-02T02:31:26;4.70;;;2.75;;
43678;SDS011;29279;50.858;4.392;2022-08-02T02:34:00;11.23;;;3.17;;
43678;SDS011;29279;50.858;4.392;2022-08-02T02:36:28;6.22;;;2.60;;
43678;SDS011;29279;50.858;4.392;2022-08-02T02:38:58;5.30;;;2.80;;
43678;SDS011;29279;50.858;4.392;2022-08-02T02:41:27;10.55;;;3.13;;
43678;SDS011;29279;50.858;4.392;2022-08-02T02:43:54;5.20;;;2.50;;
43678;SDS011;29279;50.858;4.392;2022-08-02T02:46:25;4.20;;;2.50;;
43678;SDS011;29279;50.858;4.392;2022-08-02T02:48:53;7.88;;;2.95;;
43678;SDS011;29279;50.858;4.392;2022-08-02T02:51:20;6.72;;;3.10;;
43678;SDS011;29279;50.858;4.392;2022-08-02T02:53:47;9.50;;;2.58;;
43678;SDS011;29279;50.858;4.392;2022-08-02T02:56:15;5.90;;;2.80;;
43678;SDS011;29279;50.858;4.392;2022-08-02T02:58:42;8.52;;;3.53;;
43678;SDS011;29279;50.858;4.392;2022-08-02T03:01:09;5.78;;;2.85;;
43678;SDS011;29279;50.858;4.392;2022-08-02T03:03:55;8.00;;;3.20;;
43678;SDS011;29279;50.858;4.392;2022-08-02T03:06:27;5.93;;;3.13;;
43678;SDS011;29279;50.858;4.392;2022-08-02T03:08:54;5.25;;;2.92;;
43678;SDS011;29279;50.858;4.392;2022-08-02T03:11:20;6.65;;;3.67;;
43678;SDS011;29279;50.858;4.392;2022-08-02T03:13:47;7.95;;;3.60;;
43678;SDS011;29279;50.858;4.392;2022-08-02T03:16:12;9.90;;;3.53;;
43678;SDS011;29279;50.858;4.392;2022-08-02T03:18:39;7.55;;;3.15;;
43678;SDS011;29279;50.858;4.392;2022-08-02T03:21:08;8.00;;;4.13;;
43678;SDS011;29279;50.858;4.392;2022-08-02T03:23:39;5.55;;;3.58;;
43678;SDS011;29279;50.858;4.392;2022-08-02T03:26:06;9.07;;;3.95;;
43678;SDS011;29279;50.858;4.392;2022-08-02T03:28:32;6.07;;;3.67;;
43678;SDS011;29279;50.858;4.392;2022-08-02T03:30:58;8.07;;;3.88;;
43678;SDS011;29279;50.858;4.392;2022-08-02T03:33:25;9.25;;;4.25;;
43678;SDS011;29279;50.858;4.392;2022-08-02T03:35:53;7.35;;;4.00;;
43678;SDS011;29279;50.858;4.392;2022-08-02T03:38:22;11.90;;;4.97;;
43678;SDS011;29279;50.858;4.392;2022-08-02T03:40:49;15.68;;;4.43;;
43678;SDS011;29279;50.858;4.392;2022-08-02T03:43:15;13.80;;;4.60;;
43678;SDS011;29279;50.858;4.392;2022-08-02T03:45:42;5.35;;;3.90;;
43678;SDS011;29279;50.858;4.392;2022-08-02T03:48:12;11.57;;;5.45;;
43678;SDS011;29279;50.858;4.392;2022-08-02T03:50:39;6.78;;;4.07;;
43678;SDS011;29279;50.858;4.392;2022-08-02T03:53:05;7.95;;;4.10;;
43678;SDS011;29279;50.858;4.392;2022-08-02T03:55:32;8.60;;;4.90;;
43678;SDS011;29279;50.858;4.392;2022-08-02T03:57:58;9.15;;;4.60;;
43678;SDS011;29279;50.858;4.392;2022-08-02T04:00:25;13.38;;;4.40;;
43678;SDS011;29279;50.858;4.392;2022-08-02T04:02:51;8.88;;;5.22;;
43678;SDS011;29279;50.858;4.392;2022-08-02T04:05:17;8.88;;;6.05;;
43678;SDS011;29279;50.858;4.392;2022-08-02T04:07:43;10.02;;;5.72;;
43678;SDS011;29279;50.858;4.392;2022-08-02T04:10:10;8.70;;;5.53;;
43678;SDS011;29279;50.858;4.392;2022-08-02T04:12:36;15.35;;;5.85;;
43678;SDS011;29279;50.858;4.392;2022-08-02T04:15:03;16.08;;;7.25;;
43678;SDS011;29279;50.858;4.392;2022-08-02T04:17:31;11.68;;;5.20;;
43678;SDS011;29279;50.858;4.392;2022-08-02T04:20:11;12.30;;;6.07;;
43678;SDS011;29279;50.858;4.392;2022-08-02T04:22:47;12.52;;;6.07;;
43678;SDS011;29279;50.858;4.392;2022-08-02T04:25:19;12.82;;;5.80;;
43678;SDS011;29279;50.858;4.392;2022-08-02T04:27:46;8.55;;;5.65;;
43678;SDS011;29279;50.858;4.392;2022-08-02T04:30:12;11.63;;;6.35;;
43678;SDS011;29279;50.858;4.392;2022-08-02T04:32:41;9.02;;;5.80;;
43678;SDS011;29279;50.858;4.392;2022-08-02T04:35:08;10.35;;;5.85;;
43678;SDS011;29279;50.858;4.392;2022-08-02T04:37:34;16.25;;;5.90;;
43678;SDS011;29279;50.858;4.392;2022-08-02T04:40:02;11.65;;;6.10;;
43678;SDS011;29279;50.858;4.392;2022-08-02T04:42:32;11.57;;;5.05;;
43678;SDS011;29279;50.858;4.392;2022-08-02T04:44:57;7.50;;;4.32;;
43678;SDS011;29279;50.858;4.392;2022-08-02T04:47:23;12.02;;;5.65;;
43678;SDS011;29279;50.858;4.392;2022-08-02T04:49:49;10.70;;;5.18;;
43678;SDS011;29279;50.858;4.392;2022-08-02T04:52:15;11.23;;;5.40;;
43678;SDS011;29279;50.858;4.392;2022-08-02T04:54:40;17.23;;;5.68;;
43678;SDS011;29279;50.858;4.392;2022-08-02T04:57:06;10.23;;;5.22;;
43678;SDS011;29279;50.858;4.392;2022-08-02T04:59:50;14.80;;;4.40;;
43678;SDS011;29279;50.858;4.392;2022-08-02T05:02:16;13.63;;;4.95;;
43678;SDS011;29279;50.858;4.392;2022-08-02T05:04:41;14.07;;;5.40;;
43678;SDS011;29279;50.858;4.392;2022-08-02T05:07:07;11.90;;;5.25;;
43678;SDS011;29279;50.858;4.392;2022-08-02T05:09:33;10.02;;;5.15;;
43678;SDS011;29279;50.858;4.392;2022-08-02T05:11:58;15.88;;;5.43;;
43678;SDS011;29279;50.858;4.392;2022-08-02T05:14:24;20.05;;;6.25;;
43678;SDS011;29279;50.858;4.392;2022-08-02T05:16:50;15.40;;;6.03;;
43678;SDS011;29279;50.858;4.392;2022-08-02T05:19:15;13.73;;;6.20;;
43678;SDS011;29279;50.858;4.392;2022-08-02T05:21:41;15.27;;;6.53;;
43678;SDS011;29279;50.858;4.392;2022-08-02T05:24:07;12.40;;;6.45;;
43678;SDS011;29279;50.858;4.392;2022-08-02T05:26:32;14.55;;;6.25;;
43678;SDS011;29279;50.858;4.392;2022-08-02T05:28:58;15.38;;;7.47;;
43678;SDS011;29279;50.858;4.392;2022-08-02T05:31:24;13.60;;;7.20;;
43678;SDS011;29279;50.858;4.392;2022-08-02T05:33:49;15.45;;;6.78;;
43678;SDS011;29279;50.858;4.392;2022-08-02T05:36:15;15.63;;;7.78;;
43678;SDS011;29279;50.858;4.392;2022-08-02T05:38:41;15.90;;;8.20;;
43678;SDS011;29279;50.858;4.392;2022-08-02T05:41:07;22.63;;;8.70;;
43678;SDS011;29279;50.858;4.392;2022-08-02T05:43:33;18.50;;;8.88;;
43678;SDS011;29279;50.858;4.392;2022-08-02T05:46:04;19.08;;;8.73;;
43678;SDS011;29279;50.858;4.392;2022-08-02T05:48:30;18.65;;;9.27;;
43678;SDS011;29279;50.858;4.392;2022-08-02T05:50:59;17.38;;;9.27;;
43678;SDS011;29279;50.858;4.392;2022-08-02T05:59:11;19.23;;;10.93;;
43678;SDS011;29279;50.858;4.392;2022-08-02T06:01:41;19.23;;;10.77;;
43678;SDS011;29279;50.858;4.392;2022-08-02T06:04:08;13.65;;;10.07;;
43678;SDS011;29279;50.858;4.392;2022-08-02T06:06:37;17.20;;;10.88;;
43678;SDS011;29279;50.858;4.392;2022-08-02T06:09:08;18.42;;;9.65;;
43678;SDS011;29279;50.858;4.392;2022-08-02T06:11:43;16.92;;;8.88;;
43678;SDS011;29279;50.858;4.392;2022-08-02T06:14:11;14.93;;;8.57;;
43678;SDS011;29279;50.858;4.392;2022-08-02T06:16:37;23.30;;;8.95;;
43678;SDS011;29279;50.858;4.392;2022-08-02T06:19:03;12.77;;;7.60;;
43678;SDS011;29279;50.858;4.392;2022-08-02T06:21:29;18.40;;;7.60;;
43678;SDS011;29279;50.858;4.392;2022-08-02T06:23:56;15.27;;;7.85;;
43678;SDS011;29279;50.858;4.392;2022-08-02T06:26:22;12.23;;;6.45;;
43678;SDS011;29279;50.858;4.392;2022-08-02T06:28:49;11.38;;;6.45;;
43678;SDS011;29279;50.858;4.392;2022-08-02T06:31:17;9.23;;;6.13;;
43678;SDS011;29279;50.858;4.392;2022-08-02T06:33:43;23.38;;;7.40;;
43678;SDS011;29279;50.858;4.392;2022-08-02T06:36:09;10.20;;;7.07;;
43678;SDS011;29279;50.858;4.392;2022-08-02T06:38:45;18.63;;;6.68;;
43678;SDS011;29279;50.858;4.392;2022-08-02T06:41:25;11.75;;;5.80;;
43678;SDS011;29279;50.858;4.392;2022-08-02T06:43:59;8.93;;;4.65;;
43678;SDS011;29279;50.858;4.392;2022-08-02T06:46:26;7.05;;;3.92;;
43678;SDS011;29279;50.858;4.392;2022-08-02T06:48:52;10.23;;;4.45;;
43678;SDS011;29279;50.858;4.392;2022-08-02T06:51:19;9.48;;;3.58;;
43678;SDS011;29279;50.858;4.392;2022-08-02T06:53:45;18.42;;;3.78;;
43678;SDS011;29279;50.858;4.392;2022-08-02T06:56:11;7.05;;;2.92;;
43678;SDS011;29279;50.858;4.392;2022-08-02T06:58:37;9.82;;;4.18;;
43678;SDS011;29279;50.858;4.392;2022-08-02T07:01:03;8.50;;;3.70;;
43678;SDS011;29279;50.858;4.392;2022-08-02T07:03:34;8.77;;;3.20;;
43678;SDS011;29279;50.858;4.392;2022-08-02T07:06:02;12.10;;;3.72;;
43678;SDS011;29279;50.858;4.392;2022-08-02T07:08:28;11.13;;;3.40;;
43678;SDS011;29279;50.858;4.392;2022-08-02T07:11:00;6.25;;;3.20;;
43678;SDS011;29279;50.858;4.392;2022-08-02T07:13:27;10.07;;;3.00;;
43678;SDS011;29279;50.858;4.392;2022-08-02T07:15:53;5.97;;;3.70;;
43678;SDS011;29279;50.858;4.392;2022-08-02T07:18:19;8.98;;;3.40;;
43678;SDS011;29279;50.858;4.392;2022-08-02T07:20:45;5.95;;;2.85;;
43678;SDS011;29279;50.858;4.392;2022-08-02T07:23:11;9.80;;;3.60;;
43678;SDS011;29279;50.858;4.392;2022-08-02T07:25:37;6.13;;;3.13;;
43678;SDS011;29279;50.858;4.392;2022-08-02T07:28:04;6.57;;;3.30;;
43678;SDS011;29279;50.858;4.392;2022-08-02T07:30:29;5.80;;;3.00;;
43678;SDS011;29279;50.858;4.392;2022-08-02T07:32:57;6.15;;;2.90;;
43678;SDS011;29279;50.858;4.392;2022-08-02T07:35:25;7.53;;;3.20;;
43678;SDS011;29279;50.858;4.392;2022-08-02T07:37:51;4.15;;;3.17;;
43678;SDS011;29279;50.858;4.392;2022-08-02T07:40:18;4.90;;;2.80;;
43678;SDS011;29279;50.858;4.392;2022-08-02T07:42:45;3.97;;;2.47;;
43678;SDS011;29279;50.858;4.392;2022-08-02T07:45:12;9.63;;;2.80;;
43678;SDS011;29279;50.858;4.392;2022-08-02T07:47:39;3.38;;;2.38;;
43678;SDS011;29279;50.858;4.392;2022-08-02T07:50:06;6.93;;;2.13;;
43678;SDS011;29279;50.858;4.392;2022-08-02T07:52:33;9.98;;;2.50;;
43678;SDS011;29279;50.858;4.392;2022-08-02T07:54:59;4.22;;;2.20;;
43678;SDS011;29279;50.858;4.392;2022-08-02T07:57:25;6.93;;;3.10;;
43678;SDS011;29279;50.858;4.392;2022-08-02T07:59:50;9.30;;;2.75;;
43678;SDS011;29279;50.858;4.392;2022-08-02T08:02:16;8.10;;;2.72;;
43678;SDS011;29279;50.858;4.392;2022-08-02T08:04:42;8.00;;;2.78;;
43678;SDS011;29279;50.858;4.392;2022-08-02T08:07:08;10.10;;;2.33;;
43678;SDS011;29279;50.858;4.392;2022-08-02T08:09:35;5.18;;;2.17;;
43678;SDS011;29279;50.858;4.392;2022-08-02T08:12:09;6.90;;;2.05;;
43678;SDS011;29279;50.858;4.392;2022-08-02T08:14:37;4.50;;;1.80;;
43678;SDS011;29279;50.858;4.392;2022-08-02T08:17:04;5.15;;;2.20;;
43678;SDS011;29279;50.858;4.392;2022-08-02T08:19:30;12.93;;;1.90;;
43678;SDS011;29279;50.858;4.392;2022-08-02T08:21:56;9.05;;;2.05;;
43678;SDS011;29279;50.858;4.392;2022-08-02T08:24:24;12.57;;;2.58;;
43678;SDS011;29279;50.858;4.392;2022-08-02T08:26:51;9.38;;;1.95;;
43678;SDS011;29279;50.858;4.392;2022-08-02T08:29:16;3.58;;;1.90;;
43678;SDS011;29279;50.858;4.392;2022-08-02T08:31:42;8.10;;;2.35;;
43678;SDS011;29279;50.858;4.392;2022-08-02T08:34:08;5.85;;;1.83;;
43678;SDS011;29279;50.858;4.392;2022-08-02T08:36:34;4.70;;;1.85;;
43678;SDS011;29279;50.858;4.392;2022-08-02T08:39:00;6.78;;;2.05;;
43678;SDS011;29279;50.858;4.392;2022-08-02T08:41:25;10.25;;;2.17;;
43678;SDS011;29279;50.858;4.392;2022-08-02T08:43:51;7.57;;;2.50;;
43678;SDS011;29279;50.858;4.392;2022-08-02T08:46:27;4.93;;;1.88;;
43678;SDS011;29279;50.858;4.392;2022-08-02T08:48:58;4.30;;;1.73;;
43678;SDS011;29279;50.858;4.392;2022-08-02T08:51:27;5.60;;;1.67;;
43678;SDS011;29279;50.858;4.392;2022-08-02T08:53:55;4.18;;;1.88;;
43678;SDS011;29279;50.858;4.392;2022-08-02T08:56:28;9.00;;;2.33;;
43678;SDS011;29279;50.858;4.392;2022-08-02T08:58:58;8.23;;;2.00;;
43678;SDS011;29279;50.858;4.392;2022-08-02T09:01:25;8.75;;;2.30;;
43678;SDS011;29279;50.858;4.392;2022-08-02T09:03:50;7.40;;;2.10;;
43678;SDS011;29279;50.858;4.392;2022-08-02T09:06:16;8.02;;;2.03;;
43678;SDS011;29279;50.858;4.392;2022-08-02T09:08:43;5.22;;;2.10;;
43678;SDS011;29279;50.858;4.392;2022-08-02T09:11:12;4.10;;;1.50;;
43678;SDS011;29279;50.858;4.392;2022-08-02T09:13:47;8.27;;;1.92;;
43678;SDS011;29279;50.858;4.392;2022-08-02T09:16:14;2.85;;;1.70;;
43678;SDS011;29279;50.858;4.392;2022-08-02T09:18:50;3.92;;;1.80;;
43678;SDS011;29279;50.858;4.392;2022-08-02T09:21:16;4.38;;;2.20;;
43678;SDS011;29279;50.858;4.392;2022-08-02T09:23:46;6.13;;;1.83;;
43678;SDS011;29279;50.858;4.392;2022-08-02T09:26:15;8.93;;;2.00;;
43678;SDS011;29279;50.858;4.392;2022-08-02T09:28:44;4.88;;;1.92;;
43678;SDS011;29279;50.858;4.392;2022-08-02T09:31:21;4.00;;;1.90;;
43678;SDS011;29279;50.858;4.392;2022-08-02T09:33:52;9.40;;;2.00;;
43678;SDS011;29279;50.858;4.392;2022-08-02T09:36:19;6.18;;;2.10;;
43678;SDS011;29279;50.858;4.392;2022-08-02T09:38:56;6.40;;;1.48;;
43678;SDS011;29279;50.858;4.392;2022-08-02T09:41:26;10.57;;;2.13;;
43678;SDS011;29279;50.858;4.392;2022-08-02T09:43:53;8.15;;;2.00;;
43678;SDS011;29279;50.858;4.392;2022-08-02T09:46:21;8.05;;;2.05;;
43678;SDS011;29279;50.858;4.392;2022-08-02T09:48:53;7.80;;;2.03;;
43678;SDS011;29279;50.858;4.392;2022-08-02T09:51:25;7.18;;;1.77;;
43678;SDS011;29279;50.858;4.392;2022-08-02T09:53:52;7.93;;;2.55;;
43678;SDS011;29279;50.858;4.392;2022-08-02T09:56:19;5.55;;;2.10;;
43678;SDS011;29279;50.858;4.392;2022-08-02T09:58:46;11.52;;;2.53;;
43678;SDS011;29279;50.858;4.392;2022-08-02T10:01:13;4.75;;;2.20;;
43678;SDS011;29279;50.858;4.392;2022-08-02T10:03:58;3.17;;;1.60;;
43678;SDS011;29279;50.858;4.392;2022-08-02T10:06:26;7.18;;;1.77;;
43678;SDS011;29279;50.858;4.392;2022-08-02T10:08:53;4.40;;;1.77;;
43678;SDS011;29279;50.858;4.392;2022-08-02T10:11:20;5.90;;;1.63;;
43678;SDS011;29279;50.858;4.392;2022-08-02T10:13:47;4.03;;;1.77;;
43678;SDS011;29279;50.858;4.392;2022-08-02T10:16:14;8.15;;;1.95;;
43678;SDS011;29279;50.858;4.392;2022-08-02T10:18:42;6.88;;;1.90;;
43678;SDS011;29279;50.858;4.392;2022-08-02T10:21:15;4.43;;;1.80;;
43678;SDS011;29279;50.858;4.392;2022-08-02T10:24:12;6.82;;;1.45;;
43678;SDS011;29279;50.858;4.392;2022-08-02T10:26:44;3.80;;;1.10;;
43678;SDS011;29279;50.858;4.392;2022-08-02T10:29:15;5.82;;;1.25;;
43678;SDS011;29279;50.858;4.392;2022-08-02T10:34:09;5.88;;;1.25;;
43678;SDS011;29279;50.858;4.392;2022-08-02T10:36:38;3.80;;;1.20;;
43678;SDS011;29279;50.858;4.392;2022-08-02T10:39:05;9.52;;;1.55;;
43678;SDS011;29279;50.858;4.392;2022-08-02T10:44:27;5.70;;;1.65;;
43678;SDS011;29279;50.858;4.392;2022-08-02T10:49:55;2.45;;;0.98;;
43678;SDS011;29279;50.858;4.392;2022-08-02T10:52:26;2.65;;;1.30;;
43678;SDS011;29279;50.858;4.392;2022-08-02T10:57:30;3.40;;;1.38;;
43678;SDS011;29279;50.858;4.392;2022-08-02T11:02:43;4.78;;;1.00;;
43678;SDS011;29279;50.858;4.392;2022-08-02T11:05:15;6.97;;;1.38;;
43678;SDS011;29279;50.858;4.392;2022-08-02T11:07:49;11.27;;;1.48;;
43678;SDS011;29279;50.858;4.392;2022-08-02T11:12:59;2.97;;;1.05;;
43678;SDS011;29279;50.858;4.392;2022-08-02T11:15:25;6.72;;;1.40;;
43678;SDS011;29279;50.858;4.392;2022-08-02T11:17:52;6.90;;;1.52;;
43678;SDS011;29279;50.858;4.392;2022-08-02T11:20:19;7.50;;;1.33;;
43678;SDS011;29279;50.858;4.392;2022-08-02T11:22:47;6.70;;;1.10;;
43678;SDS011;29279;50.858;4.392;2022-08-02T11:27:52;2.95;;;1.00;;
43678;SDS011;29279;50.858;4.392;2022-08-02T11:30:31;3.10;;;0.82;;
43678;SDS011;29279;50.858;4.392;2022-08-02T11:32:58;5.25;;;1.10;;
43678;SDS011;29279;50.858;4.392;2022-08-02T11:35:34;2.08;;;1.00;;
43678;SDS011;29279;50.858;4.392;2022-08-02T11:38:12;4.55;;;1.15;;
43678;SDS011;29279;50.858;4.392;2022-08-02T11:40:39;3.80;;;1.42;;
43678;SDS011;29279;50.858;4.392;2022-08-02T11:43:14;5.40;;;1.30;;
43678;SDS011;29279;50.858;4.392;2022-08-02T11:45:41;5.75;;;1.08;;
43678;SDS011;29279;50.858;4.392;2022-08-02T11:48:06;2.80;;;1.00;;
43678;SDS011;29279;50.858;4.392;2022-08-02T11:50:32;2.58;;;1.10;;
43678;SDS011;29279;50.858;4.392;2022-08-02T11:52:58;8.38;;;1.20;;
43678;SDS011;29279;50.858;4.392;2022-08-02T11:55:27;3.25;;;1.00;;
43678;SDS011;29279;50.858;4.392;2022-08-02T11:58:00;4.88;;;1.20;;
43678;SDS011;29279;50.858;4.392;2022-08-02T12:00:28;2.53;;;0.77;;
43678;SDS011;29279;50.858;4.392;2022-08-02T12:02:54;2.53;;;1.00;;
43678;SDS011;29279;50.858;4.392;2022-08-02T12:05:21;4.07;;;1.00;;
43678;SDS011;29279;50.858;4.392;2022-08-02T12:07:50;2.33;;;1.00;;
43678;SDS011;29279;50.858;4.392;2022-08-02T12:10:21;3.53;;;1.15;;
43678;SDS011;29279;50.858;4.392;2022-08-02T12:15:37;2.25;;;0.90;;
43678;SDS011;29279;50.858;4.392;2022-08-02T12:18:09;5.43;;;1.02;;
43678;SDS011;29279;50.858;4.392;2022-08-02T12:20:56;2.15;;;0.85;;
43678;SDS011;29279;50.858;4.392;2022-08-02T12:23:22;6.93;;;1.13;;
43678;SDS011;29279;50.858;4.392;2022-08-02T12:25:58;3.78;;;1.10;;
43678;SDS011;29279;50.858;4.392;2022-08-02T12:28:31;6.30;;;1.10;;
43678;SDS011;29279;50.858;4.392;2022-08-02T12:30:59;2.28;;;1.00;;
43678;SDS011;29279;50.858;4.392;2022-08-02T12:33:28;4.70;;;1.13;;
43678;SDS011;29279;50.858;4.392;2022-08-02T12:36:18;4.18;;;1.10;;
43678;SDS011;29279;50.858;4.392;2022-08-02T12:38:56;4.07;;;1.20;;
43678;SDS011;29279;50.858;4.392;2022-08-02T12:41:23;2.30;;;0.93;;
43678;SDS011;29279;50.858;4.392;2022-08-02T12:43:50;8.95;;;1.00;;
43678;SDS011;29279;50.858;4.392;2022-08-02T12:46:17;5.30;;;1.00;;
43678;SDS011;29279;50.858;4.392;2022-08-02T12:48:44;1.85;;;0.93;;
43678;SDS011;29279;50.858;4.392;2022-08-02T12:51:30;5.47;;;1.10;;
43678;SDS011;29279;50.858;4.392;2022-08-02T12:54:14;2.97;;;0.93;;
43678;SDS011;29279;50.858;4.392;2022-08-02T12:56:43;2.67;;;0.95;;
43678;SDS011;29279;50.858;4.392;2022-08-02T12:59:09;6.18;;;1.20;;
43678;SDS011;29279;50.858;4.392;2022-08-02T13:01:35;9.55;;;1.23;;
43678;SDS011;29279;50.858;4.392;2022-08-02T13:04:01;6.53;;;1.05;;
43678;SDS011;29279;50.858;4.392;2022-08-02T13:06:27;5.53;;;0.82;;
43678;SDS011;29279;50.858;4.392;2022-08-02T13:08:53;1.40;;;0.80;;
43678;SDS011;29279;50.858;4.392;2022-08-02T13:11:19;5.10;;;1.10;;
43678;SDS011;29279;50.858;4.392;2022-08-02T13:13:46;4.75;;;1.02;;
43678;SDS011;29279;50.858;4.392;2022-08-02T13:16:12;2.85;;;0.82;;
43678;SDS011;29279;50.858;4.392;2022-08-02T13:18:38;1.30;;;0.60;;
43678;SDS011;29279;50.858;4.392;2022-08-02T13:21:04;5.75;;;1.08;;
43678;SDS011;29279;50.858;4.392;2022-08-02T13:23:31;2.05;;;0.77;;
43678;SDS011;29279;50.858;4.392;2022-08-02T13:26:00;4.57;;;1.63;;
43678;SDS011;29279;50.858;4.392;2022-08-02T13:28:26;7.65;;;0.85;;
43678;SDS011;29279;50.858;4.392;2022-08-02T13:30:52;2.25;;;0.82;;
43678;SDS011;29279;50.858;4.392;2022-08-02T13:33:18;3.75;;;1.10;;
43678;SDS011;29279;50.858;4.392;2022-08-02T13:35:45;6.32;;;0.93;;
43678;SDS011;29279;50.858;4.392;2022-08-02T13:38:11;6.15;;;0.85;;
43678;SDS011;29279;50.858;4.392;2022-08-02T13:40:37;3.28;;;1.08;;
43678;SDS011;29279;50.858;4.392;2022-08-02T13:43:23;3.83;;;0.73;;
43678;SDS011;29279;50.858;4.392;2022-08-02T13:45:49;4.20;;;1.23;;
43678;SDS011;29279;50.858;4.392;2022-08-02T13:48:15;1.73;;;0.82;;
43678;SDS011;29279;50.858;4.392;2022-08-02T13:50:41;4.65;;;1.08;;
43678;SDS011;29279;50.858;4.392;2022-08-02T13:53:06;3.10;;;0.80;;
43678;SDS011;29279;50.858;4.392;2022-08-02T13:55:32;4.43;;;0.77;;
43678;SDS011;29279;50.858;4.392;2022-08-02T13:57:58;2.90;;;0.75;;
43678;SDS011;29279;50.858;4.392;2022-08-02T14:00:24;3.60;;;0.90;;
43678;SDS011;29279;50.858;4.392;2022-08-02T14:02:50;6.75;;;1.00;;
43678;SDS011;29279;50.858;4.392;2022-08-02T14:05:15;3.58;;;0.80;;
43678;SDS011;29279;50.858;4.392;2022-08-02T14:07:41;4.38;;;0.88;;
43678;SDS011;29279;50.858;4.392;2022-08-02T14:10:07;5.85;;;1.05;;
43678;SDS011;29279;50.858;4.392;2022-08-02T14:12:33;8.05;;;0.90;;
43678;SDS011;29279;50.858;4.392;2022-08-02T14:14:59;4.75;;;0.65;;
43678;SDS011;29279;50.858;4.392;2022-08-02T14:17:24;4.10;;;1.27;;
43678;SDS011;29279;50.858;4.392;2022-08-02T14:19:50;1.80;;;0.80;;
43678;SDS011;29279;50.858;4.392;2022-08-02T14:22:16;3.28;;;1.00;;
43678;SDS011;29279;50.858;4.392;2022-08-02T14:24:41;8.68;;;1.48;;
43678;SDS011;29279;50.858;4.392;2022-08-02T14:27:07;3.40;;;0.88;;
43678;SDS011;29279;50.858;4.392;2022-08-02T14:29:33;4.38;;;0.98;;
43678;SDS011;29279;50.858;4.392;2022-08-02T14:31:59;2.65;;;0.60;;
43678;SDS011;29279;50.858;4.392;2022-08-02T14:34:25;4.88;;;0.88;;
43678;SDS011;29279;50.858;4.392;2022-08-02T14:36:51;4.18;;;0.80;;
43678;SDS011;29279;50.858;4.392;2022-08-02T14:39:17;4.20;;;0.95;;
43678;SDS011;29279;50.858;4.392;2022-08-02T14:41:43;6.65;;;0.90;;
43678;SDS011;29279;50.858;4.392;2022-08-02T14:44:08;7.70;;;1.00;;
43678;SDS011;29279;50.858;4.392;2022-08-02T14:46:35;11.23;;;1.27;;
43678;SDS011;29279;50.858;4.392;2022-08-02T14:49:04;3.42;;;0.98;;
43678;SDS011;29279;50.858;4.392;2022-08-02T14:51:31;4.80;;;0.90;;
43678;SDS011;29279;50.858;4.392;2022-08-02T14:53:58;4.28;;;1.00;;
43678;SDS011;29279;50.858;4.392;2022-08-02T14:56:24;3.92;;;0.75;;
43678;SDS011;29279;50.858;4.392;2022-08-02T14:58:50;4.88;;;1.25;;
43678;SDS011;29279;50.858;4.392;2022-08-02T15:01:16;3.10;;;1.08;;
43678;SDS011;29279;50.858;4.392;2022-08-02T15:03:42;10.50;;;0.95;;
43678;SDS011;29279;50.858;4.392;2022-08-02T15:06:07;10.23;;;1.10;;
43678;SDS011;29279;50.858;4.392;2022-08-02T15:08:33;3.70;;;0.80;;
43678;SDS011;29279;50.858;4.392;2022-08-02T15:10:59;4.10;;;1.25;;
43678;SDS011;29279;50.858;4.392;2022-08-02T15:13:24;11.30;;;1.02;;
43678;SDS011;29279;50.858;4.392;2022-08-02T15:15:50;2.88;;;1.00;;
43678;SDS011;29279;50.858;4.392;2022-08-02T15:18:16;7.00;;;1.08;;
43678;SDS011;29279;50.858;4.392;2022-08-02T15:20:42;2.70;;;0.98;;
43678;SDS011;29279;50.858;4.392;2022-08-02T15:23:07;6.60;;;0.90;;
43678;SDS011;29279;50.858;4.392;2022-08-02T15:25:33;5.55;;;1.10;;
43678;SDS011;29279;50.858;4.392;2022-08-02T15:27:59;2.72;;;0.95;;